Time;durP1;ratioP1;P1;durP2;ratioP2;P2;SDS_P1;SDS_P2;PMS_P1;PMS_P2;Temp;Humidity;BMP_temperature;BMP_pressure;BME280_temperature;BME280_humidity;BME280_pressure;Samples;Min_cycle;Max_cycle;Signal;HPM_P1;HPM_P2
2021/10/18 00:01:03;;;;;;;41.42;31.80;;;10.00;98.40;;;;;;5089289;28;20052;-69
2021/10/18 00:03:30;;;;;;;107.82;75.80;;;10.10;98.40;;;;;;5072152;28;20052;-74
2021/10/18 00:05:57;;;;;;;120.25;90.68;;;10.10;98.50;;;;;;5087995;28;20048;-70
2021/10/18 00:08:24;;;;;;;60.67;47.70;;;10.20;98.00;;;;;;5088232;28;20055;-75
2021/10/18 00:10:50;;;;;;;86.72;62.47;;;10.20;98.10;;;;;;5073538;28;20059;-72
2021/10/18 00:13:38;;;;;;;35.30;26.98;;;10.10;97.70;;;;;;5081130;28;20047;-74
2021/10/18 00:16:05;;;;;;;22.27;17.02;;;10.00;97.70;;;;;;5089517;28;20398;-68
2021/10/18 00:18:32;;;;;;;158.13;126.30;;;10.00;97.60;;;;;;5089248;28;20123;-73
2021/10/18 00:20:59;;;;;;;323.55;276.17;;;10.00;97.90;;;;;;5083602;28;20062;-67
2021/10/18 00:23:25;;;;;;;311.30;265.35;;;10.10;98.30;;;;;;5092892;28;20052;-68
2021/10/18 00:25:53;;;;;;;60.20;47.10;;;10.10;98.30;;;;;;5069792;28;20056;-75
2021/10/18 00:28:20;;;;;;;57.13;45.13;;;10.10;97.80;;;;;;5091324;28;20476;-74
2021/10/18 00:30:48;;;;;;;52.03;41.00;;;10.10;97.70;;;;;;5089203;28;20048;-75
2021/10/18 00:33:16;;;;;;;31.25;24.92;;;10.10;97.50;;;;;;5088509;28;20106;-75
2021/10/18 00:35:43;;;;;;;17.00;13.02;;;10.00;97.80;;;;;;5087768;28;20052;-73
2021/10/18 00:38:10;;;;;;;14.30;12.10;;;9.90;97.70;;;;;;5087904;28;20097;-74
2021/10/18 00:40:37;;;;;;;12.18;8.88;;;9.90;97.60;;;;;;5089552;28;20044;-70
2021/10/18 00:43:04;;;;;;;39.17;29.38;;;9.90;97.70;;;;;;5095329;28;20049;-75
2021/10/18 00:45:33;;;;;;;93.40;69.00;;;9.90;98.00;;;;;;5095035;28;20044;-78
2021/10/18 00:48:01;;;;;;;81.47;61.33;;;9.90;97.80;;;;;;5094490;28;20479;-75
2021/10/18 00:50:28;;;;;;;41.92;33.55;;;9.80;97.60;;;;;;5091822;28;20039;-73
2021/10/18 00:52:55;;;;;;;27.85;22.38;;;9.80;97.70;;;;;;5093370;28;20539;-75
2021/10/18 00:55:22;;;;;;;21.42;16.73;;;9.70;97.20;;;;;;5093940;28;21334;-73
2021/10/18 00:57:49;;;;;;;14.68;12.27;;;9.60;97.30;;;;;;5093625;28;20387;-76
2021/10/18 01:00:16;;;;;;;11.13;9.18;;;9.60;97.70;;;;;;5073776;28;20047;-73
2021/10/18 01:02:43;;;;;;;13.27;8.60;;;9.60;97.60;;;;;;5091540;28;20048;-72
2021/10/18 01:05:10;;;;;;;10.90;8.93;;;9.60;97.90;;;;;;5092747;27;20056;-70
2021/10/18 01:07:37;;;;;;;8.55;7.05;;;9.50;97.70;;;;;;5091867;28;20048;-74
2021/10/18 01:10:05;;;;;;;10.50;7.95;;;9.50;97.90;;;;;;5092890;28;20048;-75
2021/10/18 01:12:32;;;;;;;9.88;7.70;;;9.50;97.80;;;;;;5092525;28;20067;-81
2021/10/18 01:14:58;;;;;;;40.30;30.88;;;9.50;97.80;;;;;;5095066;28;20524;-68
2021/10/18 01:17:25;;;;;;;182.23;135.40;;;9.40;97.90;;;;;;5098826;28;20055;-70
2021/10/18 01:19:52;;;;;;;136.65;102.97;;;9.40;97.70;;;;;;5111380;27;20131;-70
2021/10/18 01:22:19;;;;;;;61.92;45.67;;;9.40;98.20;;;;;;5089733;28;20088;-70
2021/10/18 01:24:46;;;;;;;32.78;25.35;;;9.40;98.10;;;;;;5089667;28;20488;-70
2021/10/18 01:27:13;;;;;;;20.27;16.65;;;9.40;97.80;;;;;;5091230;28;20555;-70
2021/10/18 01:29:40;;;;;;;12.73;10.00;;;9.40;98.00;;;;;;5092093;28;20040;-70
2021/10/18 01:32:09;;;;;;;12.63;9.25;;;9.30;98.40;;;;;;5090604;28;20073;-70
2021/10/18 01:34:36;;;;;;;9.27;7.57;;;9.40;98.80;;;;;;5073990;28;20114;-71
2021/10/18 01:37:04;;;;;;;11.88;7.20;;;9.40;99.00;;;;;;5089716;28;20052;-70
2021/10/18 01:39:32;;;;;;;15.95;7.72;;;9.40;98.90;;;;;;5088989;28;20484;-70
2021/10/18 01:41:59;;;;;;;8.68;7.47;;;9.40;99.20;;;;;;5069897;28;20048;-70
2021/10/18 01:44:26;;;;;;;11.48;7.32;;;9.50;99.10;;;;;;5073322;28;20125;-71
2021/10/18 01:46:53;;;;;;;8.80;6.13;;;9.50;98.90;;;;;;5089911;28;20101;-71
2021/10/18 01:49:20;;;;;;;10.38;7.13;;;9.50;98.90;;;;;;5069811;28;20123;-71
2021/10/18 01:51:47;;;;;;;8.75;6.93;;;9.50;99.00;;;;;;5086288;28;20124;-71
2021/10/18 01:54:14;;;;;;;10.45;7.07;;;9.50;99.20;;;;;;5088902;28;20430;-71
2021/10/18 01:56:41;;;;;;;9.60;7.63;;;9.50;99.10;;;;;;5091482;28;20054;-71
2021/10/18 01:59:08;;;;;;;10.82;7.07;;;9.50;99.30;;;;;;5098063;28;20050;-71
2021/10/18 02:01:36;;;;;;;11.10;6.68;;;9.50;99.30;;;;;;5074213;28;20411;-71
2021/10/18 02:04:04;;;;;;;11.57;7.53;;;9.50;99.20;;;;;;5091286;28;20059;-72
2021/10/18 02:06:31;;;;;;;9.45;7.55;;;9.50;99.40;;;;;;5090541;28;20122;-71
2021/10/18 02:08:58;;;;;;;10.10;7.95;;;9.50;99.40;;;;;;5089372;28;20040;-71
2021/10/18 02:11:25;;;;;;;11.05;8.02;;;9.50;99.30;;;;;;5090984;28;20040;-71
2021/10/18 02:13:55;;;;;;;10.65;7.75;;;9.50;99.70;;;;;;5091343;28;20173;-71
2021/10/18 02:16:22;;;;;;;10.90;8.00;;;9.50;99.90;;;;;;5089376;28;20052;-71
2021/10/18 02:18:49;;;;;;;14.77;8.73;;;9.50;99.90;;;;;;5088905;28;20123;-71
2021/10/18 02:21:16;;;;;;;11.35;7.45;;;9.50;99.90;;;;;;5073233;28;20078;-71
2021/10/18 02:23:43;;;;;;;11.15;7.68;;;9.50;99.90;;;;;;5089384;28;20047;-71
2021/10/18 02:26:11;;;;;;;10.23;7.28;;;9.50;99.90;;;;;;5089373;28;20082;-71
2021/10/18 02:28:38;;;;;;;12.73;8.27;;;9.50;99.90;;;;;;5090934;28;20044;-71
2021/10/18 02:31:04;;;;;;;19.25;8.35;;;9.50;99.80;;;;;;5088597;28;20461;-72
2021/10/18 02:33:32;;;;;;;9.57;7.85;;;9.50;99.80;;;;;;5089691;28;20051;-70
2021/10/18 02:35:59;;;;;;;11.18;7.63;;;9.50;99.80;;;;;;5090639;28;20067;-71
2021/10/18 02:38:25;;;;;;;9.02;7.55;;;9.40;99.90;;;;;;5071704;28;20127;-72
2021/10/18 02:40:53;;;;;;;10.75;7.28;;;9.50;99.90;;;;;;5087059;28;20462;-73
2021/10/18 02:43:21;;;;;;;11.07;8.00;;;9.50;99.90;;;;;;5089181;28;20055;-72
2021/10/18 02:45:50;;;;;;;18.20;9.93;;;9.50;99.90;;;;;;5088489;28;20047;-71
2021/10/18 02:48:17;;;;;;;15.02;9.60;;;9.50;99.90;;;;;;5089226;28;20054;-72
2021/10/18 02:50:44;;;;;;;12.65;8.20;;;9.50;99.90;;;;;;5094222;28;20036;-71
2021/10/18 02:53:11;;;;;;;10.85;8.40;;;9.50;99.90;;;;;;5090098;28;20123;-71
2021/10/18 02:55:38;;;;;;;11.85;8.43;;;9.50;99.90;;;;;;5090451;28;20488;-72
2021/10/18 02:58:06;;;;;;;11.55;8.57;;;9.50;99.90;;;;;;5088457;28;20040;-71
2021/10/18 03:00:33;;;;;;;10.13;8.48;;;9.50;99.90;;;;;;5089902;28;20574;-73
2021/10/18 03:03:00;;;;;;;11.63;9.43;;;9.50;99.90;;;;;;5087995;28;20407;-72
2021/10/18 03:05:28;;;;;;;14.07;10.25;;;9.50;99.90;;;;;;5087811;28;20047;-71
2021/10/18 03:07:55;;;;;;;14.60;11.52;;;9.50;99.90;;;;;;5089181;28;20059;-71
2021/10/18 03:10:30;;;;;;;18.20;12.23;;;9.60;99.90;;;;;;5088152;28;20040;-71
2021/10/18 03:13:00;;;;;;;20.58;13.93;;;9.60;99.90;;;;;;5089995;28;20047;-71
2021/10/18 03:15:27;;;;;;;18.65;12.60;;;9.70;99.90;;;;;;5086064;28;20048;-71
2021/10/18 03:17:55;;;;;;;21.17;13.43;;;9.80;99.90;;;;;;5088025;28;20044;-72
2021/10/18 03:20:22;;;;;;;20.83;13.93;;;9.80;99.90;;;;;;5088104;28;20048;-72
2021/10/18 03:22:49;;;;;;;18.55;13.68;;;9.90;99.90;;;;;;5089350;28;20052;-71
2021/10/18 03:25:16;;;;;;;23.33;12.98;;;10.00;99.90;;;;;;5089322;28;20131;-71
2021/10/18 03:27:44;;;;;;;22.30;14.68;;;10.10;99.90;;;;;;5089524;28;20122;-75
2021/10/18 03:30:11;;;;;;;20.15;14.90;;;10.20;99.90;;;;;;5087075;28;20079;-72
2021/10/18 03:32:38;;;;;;;21.88;15.45;;;10.20;99.90;;;;;;5067345;28;20127;-71
2021/10/18 03:35:05;;;;;;;20.40;13.93;;;10.30;99.90;;;;;;5056741;28;20048;-73
2021/10/18 03:37:33;;;;;;;22.42;15.23;;;10.40;99.90;;;;;;5070890;28;20062;-72
2021/10/18 03:40:01;;;;;;;23.88;16.38;;;10.50;99.90;;;;;;5053899;28;20503;-73
2021/10/18 03:42:28;;;;;;;28.90;17.63;;;10.50;99.90;;;;;;5072744;28;20154;-73
2021/10/18 03:44:55;;;;;;;23.25;17.20;;;10.60;99.90;;;;;;5072047;28;20051;-72
2021/10/18 03:47:22;;;;;;;22.70;16.42;;;10.70;99.90;;;;;;5088217;28;20076;-74
2021/10/18 03:49:49;;;;;;;29.42;18.55;;;10.80;99.90;;;;;;5089179;28;20058;-73
2021/10/18 03:52:18;;;;;;;28.55;16.55;;;10.90;99.90;;;;;;5087297;28;20044;-73
2021/10/18 03:54:45;;;;;;;28.63;18.13;;;11.00;99.90;;;;;;5087890;28;20363;-72
2021/10/18 03:57:12;;;;;;;30.45;17.88;;;11.10;99.90;;;;;;5088392;28;20054;-72
2021/10/18 03:59:39;;;;;;;34.08;21.95;;;11.20;99.90;;;;;;5088343;28;20072;-73
2021/10/18 04:02:06;;;;;;;32.95;20.17;;;11.30;99.90;;;;;;5088069;28;20066;-72
2021/10/18 04:04:33;;;;;;;27.33;17.15;;;11.30;99.90;;;;;;5088580;28;20048;-72
2021/10/18 04:07:01;;;;;;;28.92;18.90;;;11.40;99.90;;;;;;5067560;28;20071;-73
2021/10/18 04:09:28;;;;;;;31.35;19.23;;;11.40;99.90;;;;;;5088166;28;20048;-72
2021/10/18 04:11:55;;;;;;;32.05;16.90;;;11.50;99.90;;;;;;5088556;28;20143;-72
2021/10/18 04:14:22;;;;;;;29.02;18.35;;;11.50;99.90;;;;;;5088452;28;20131;-73
2021/10/18 04:16:49;;;;;;;27.95;17.92;;;11.60;99.90;;;;;;5088453;28;20048;-73
2021/10/18 04:19:16;;;;;;;31.27;19.63;;;11.60;99.90;;;;;;5090632;28;20130;-71
2021/10/18 04:21:42;;;;;;;36.35;20.75;;;11.70;99.90;;;;;;5091180;28;20059;-71
2021/10/18 04:24:10;;;;;;;30.20;17.70;;;11.70;99.90;;;;;;5092247;28;20399;-71
2021/10/18 04:26:37;;;;;;;26.60;16.85;;;11.80;99.90;;;;;;5091716;28;20052;-71
2021/10/18 04:29:06;;;;;;;34.03;18.40;;;11.80;99.90;;;;;;5092227;28;20048;-71
2021/10/18 04:31:34;;;;;;;30.45;18.05;;;11.80;99.90;;;;;;5091853;28;20458;-72
2021/10/18 04:34:01;;;;;;;31.83;18.02;;;11.80;99.90;;;;;;5092362;28;20055;-71
2021/10/18 04:36:28;;;;;;;28.88;18.08;;;11.90;99.90;;;;;;5092247;28;20046;-71
2021/10/18 04:38:55;;;;;;;25.67;15.60;;;11.90;99.90;;;;;;5094014;28;20133;-71
2021/10/18 04:41:22;;;;;;;24.77;16.75;;;11.90;99.90;;;;;;5068820;28;20055;-71
2021/10/18 04:43:49;;;;;;;29.35;17.25;;;11.90;99.90;;;;;;5070998;28;20091;-71
2021/10/18 04:46:16;;;;;;;25.05;15.65;;;11.90;99.90;;;;;;5092363;28;20072;-71
2021/10/18 04:48:43;;;;;;;22.80;15.23;;;11.90;99.90;;;;;;5091363;28;20484;-72
2021/10/18 04:51:10;;;;;;;22.20;14.80;;;11.80;99.90;;;;;;5092511;28;20048;-72
2021/10/18 04:53:37;;;;;;;25.88;17.27;;;11.80;99.90;;;;;;5091577;28;20128;-71
2021/10/18 04:56:04;;;;;;;25.13;16.17;;;11.80;99.90;;;;;;5091422;28;20147;-72
2021/10/18 04:58:31;;;;;;;23.80;15.02;;;11.70;99.90;;;;;;5092410;28;20055;-71
2021/10/18 05:00:58;;;;;;;23.08;15.95;;;11.70;99.90;;;;;;5090159;28;20056;-72
2021/10/18 05:03:26;;;;;;;24.67;17.48;;;11.60;99.90;;;;;;5091124;28;20079;-72
2021/10/18 05:05:55;;;;;;;25.88;16.55;;;11.60;99.90;;;;;;5090866;28;20052;-72
2021/10/18 05:08:29;;;;;;;20.23;15.40;;;11.70;99.90;;;;;;5086485;28;20056;-72
2021/10/18 05:10:56;;;;;;;23.48;15.45;;;11.60;99.90;;;;;;5091892;28;20131;-72
2021/10/18 05:13:24;;;;;;;20.73;15.23;;;11.60;99.90;;;;;;5090421;28;20048;-73
2021/10/18 05:15:52;;;;;;;22.08;15.20;;;11.60;99.90;;;;;;5073426;28;20048;-72
2021/10/18 05:18:20;;;;;;;21.67;16.55;;;11.60;99.90;;;;;;5074060;28;20044;-72
2021/10/18 05:20:48;;;;;;;29.05;16.25;;;11.60;99.90;;;;;;5091347;28;20044;-73
2021/10/18 05:23:15;;;;;;;21.48;15.75;;;11.60;99.90;;;;;;5088898;28;20055;-72
2021/10/18 05:25:43;;;;;;;22.30;15.35;;;11.60;99.90;;;;;;5089814;28;20052;-72
2021/10/18 05:28:10;;;;;;;23.65;16.50;;;11.60;99.90;;;;;;5073832;28;20048;-73
2021/10/18 05:30:37;;;;;;;25.20;16.08;;;11.50;99.90;;;;;;5091292;28;20359;-71
2021/10/18 05:33:04;;;;;;;25.30;17.17;;;11.60;99.90;;;;;;5090930;28;20191;-72
2021/10/18 05:35:31;;;;;;;25.55;17.27;;;11.60;99.90;;;;;;5091457;28;20349;-72
2021/10/18 05:37:59;;;;;;;22.30;15.73;;;11.60;99.90;;;;;;5086494;28;20048;-71
2021/10/18 05:40:28;;;;;;;23.73;17.40;;;11.50;99.90;;;;;;5058113;28;20059;-72
2021/10/18 05:42:55;;;;;;;23.30;15.70;;;11.50;99.90;;;;;;5090221;28;20079;-72
2021/10/18 05:45:22;;;;;;;21.40;16.48;;;11.50;99.90;;;;;;5090368;28;20103;-72
2021/10/18 05:47:53;;;;;;;24.98;16.42;;;11.50;99.90;;;;;;5073572;28;20479;-72
2021/10/18 05:50:21;;;;;;;25.52;17.25;;;11.50;99.90;;;;;;5074189;28;20046;-72
2021/10/18 05:52:48;;;;;;;25.52;18.27;;;11.50;99.90;;;;;;5089582;28;20047;-73
2021/10/18 05:55:15;;;;;;;24.88;18.58;;;11.40;99.90;;;;;;5088295;28;20731;-73
2021/10/18 05:57:47;;;;;;;25.92;19.20;;;11.40;99.90;;;;;;5087763;28;20218;-72
2021/10/18 06:00:14;;;;;;;23.92;18.00;;;11.40;99.90;;;;;;5090149;28;20064;-71
2021/10/18 06:02:41;;;;;;;28.13;19.23;;;11.40;99.90;;;;;;5089602;28;20040;-72
2021/10/18 06:05:09;;;;;;;24.08;18.60;;;11.40;99.90;;;;;;5089400;28;20539;-72
2021/10/18 06:07:36;;;;;;;22.35;16.58;;;11.40;99.90;;;;;;5073002;28;20135;-71
2021/10/18 06:10:03;;;;;;;23.20;17.77;;;11.40;99.90;;;;;;5088419;28;20052;-71
2021/10/18 06:12:31;;;;;;;19.35;15.27;;;11.40;99.90;;;;;;5084778;28;21636;-72
2021/10/18 06:14:58;;;;;;;23.00;17.90;;;11.40;99.90;;;;;;5088962;28;20171;-72
2021/10/18 06:17:25;;;;;;;23.17;18.13;;;11.40;99.90;;;;;;5091918;28;20044;-72
2021/10/18 06:19:52;;;;;;;21.45;17.40;;;11.40;99.90;;;;;;5086284;28;20503;-71
2021/10/18 06:22:18;;;;;;;21.80;16.48;;;11.30;99.90;;;;;;5090202;28;20052;-72
2021/10/18 06:24:45;;;;;;;23.63;17.30;;;11.30;99.90;;;;;;5056492;28;20052;-73
2021/10/18 06:27:12;;;;;;;23.27;17.40;;;11.30;99.90;;;;;;5071308;28;20048;-71
2021/10/18 06:29:39;;;;;;;22.00;15.48;;;11.30;99.90;;;;;;5088823;28;20127;-72
2021/10/18 06:32:06;;;;;;;23.45;17.55;;;11.30;99.90;;;;;;5091549;28;20044;-71
2021/10/18 06:34:33;;;;;;;23.77;17.55;;;11.30;99.90;;;;;;5087993;28;20161;-72
2021/10/18 06:37:00;;;;;;;25.90;17.85;;;11.30;99.90;;;;;;5088831;28;20044;-73
2021/10/18 06:39:27;;;;;;;23.50;18.42;;;11.20;99.90;;;;;;5069161;28;20189;-71
2021/10/18 06:41:54;;;;;;;25.13;18.17;;;11.20;99.90;;;;;;5078066;28;20123;-72
2021/10/18 06:44:21;;;;;;;26.15;19.70;;;11.30;99.90;;;;;;5091071;28;20043;-72
2021/10/18 06:46:48;;;;;;;22.15;17.33;;;11.30;99.90;;;;;;5089013;28;20446;-72
2021/10/18 06:49:15;;;;;;;23.73;17.67;;;11.30;99.90;;;;;;5089166;28;20052;-72
2021/10/18 06:51:48;;;;;;;25.40;18.63;;;11.40;99.90;;;;;;5088447;28;20377;-74
2021/10/18 06:54:16;;;;;;;21.13;16.70;;;11.50;99.90;;;;;;5089054;28;20047;-72
2021/10/18 06:56:46;;;;;;;22.02;17.45;;;11.50;99.90;;;;;;5070653;28;20133;-73
2021/10/18 06:59:15;;;;;;;22.73;17.70;;;11.60;99.90;;;;;;5073113;28;20051;-71
2021/10/18 07:01:42;;;;;;;21.60;17.55;;;11.60;99.90;;;;;;5069154;28;20479;-73
2021/10/18 07:04:09;;;;;;;25.33;19.52;;;11.60;99.90;;;;;;5072674;28;20139;-73
2021/10/18 07:06:37;;;;;;;26.80;20.60;;;11.70;99.90;;;;;;5089343;28;20051;-71
2021/10/18 07:09:04;;;;;;;26.48;20.95;;;11.80;99.90;;;;;;5072618;28;20071;-72
2021/10/18 07:11:31;;;;;;;25.80;20.35;;;11.80;99.90;;;;;;5072733;28;20052;-71
2021/10/18 07:13:58;;;;;;;34.45;21.63;;;11.90;99.90;;;;;;5089266;28;20184;-73
2021/10/18 07:16:25;;;;;;;28.25;21.40;;;11.90;99.90;;;;;;5090186;28;20040;-71
2021/10/18 07:18:52;;;;;;;27.08;21.02;;;12.00;99.90;;;;;;5089058;28;20047;-71
2021/10/18 07:21:19;;;;;;;32.85;22.92;;;12.00;99.90;;;;;;5068076;28;20044;-70
2021/10/18 07:23:51;;;;;;;29.67;22.33;;;12.20;99.90;;;;;;5087142;28;20118;-70
2021/10/18 07:26:19;;;;;;;27.50;21.13;;;12.20;99.90;;;;;;5073287;28;20079;-72
2021/10/18 07:28:46;;;;;;;25.73;20.27;;;12.20;99.90;;;;;;5070203;28;20072;-72
2021/10/18 07:31:13;;;;;;;27.83;21.08;;;12.20;99.90;;;;;;5071839;28;20104;-73
2021/10/18 07:33:40;;;;;;;30.48;22.13;;;12.30;99.90;;;;;;5068656;28;20078;-72
2021/10/18 07:36:10;;;;;;;24.30;19.35;;;12.30;99.90;;;;;;5068313;28;20051;-72
2021/10/18 07:38:38;;;;;;;25.00;19.95;;;12.30;99.90;;;;;;5067324;28;20294;-72
2021/10/18 07:41:06;;;;;;;24.13;20.27;;;12.30;99.90;;;;;;5072922;28;20448;-74
2021/10/18 07:43:33;;;;;;;25.60;20.08;;;12.40;99.90;;;;;;5072420;28;20036;-72
2021/10/18 07:46:01;;;;;;;26.30;22.17;;;12.50;99.90;;;;;;5087952;28;20040;-73
2021/10/18 07:48:28;;;;;;;27.27;20.50;;;12.50;99.90;;;;;;5068724;28;20059;-72
2021/10/18 07:50:55;;;;;;;24.02;20.60;;;12.60;99.90;;;;;;5085982;28;20119;-73
2021/10/18 07:53:22;;;;;;;23.60;20.85;;;12.60;99.90;;;;;;5088966;28;20051;-72
2021/10/18 07:55:49;;;;;;;24.73;20.10;;;12.70;99.90;;;;;;5088224;28;20380;-72
2021/10/18 07:58:21;;;;;;;24.17;19.48;;;12.70;99.90;;;;;;5085009;28;20048;-73
2021/10/18 08:00:49;;;;;;;22.73;18.48;;;12.80;99.90;;;;;;5088486;28;20044;-72
2021/10/18 08:03:16;;;;;;;22.77;18.02;;;12.90;99.90;;;;;;5087615;28;20075;-72
2021/10/18 08:05:43;;;;;;;30.30;19.77;;;12.90;99.90;;;;;;5068672;28;20492;-72
2021/10/18 08:08:11;;;;;;;24.90;19.92;;;13.00;99.90;;;;;;5087365;28;20048;-73
2021/10/18 08:10:38;;;;;;;28.38;20.00;;;13.00;99.90;;;;;;5089219;28;20066;-72
2021/10/18 08:13:05;;;;;;;26.75;20.33;;;13.00;99.90;;;;;;5088171;28;20504;-73
2021/10/18 08:15:35;;;;;;;24.40;20.48;;;13.10;99.90;;;;;;5072356;28;20463;-72
2021/10/18 08:18:02;;;;;;;30.85;19.65;;;13.10;99.90;;;;;;5088817;28;20093;-73
2021/10/18 08:20:31;;;;;;;24.00;18.42;;;13.20;99.90;;;;;;5087871;28;20056;-73
2021/10/18 08:22:58;;;;;;;26.30;20.10;;;13.20;99.90;;;;;;5072001;28;20496;-75
2021/10/18 08:25:25;;;;;;;24.13;19.15;;;13.30;99.90;;;;;;5055708;28;20167;-70
2021/10/18 08:27:52;;;;;;;21.80;18.42;;;13.30;99.90;;;;;;5094847;28;20036;-70
2021/10/18 08:30:20;;;;;;;23.67;19.05;;;13.40;99.90;;;;;;5087917;28;20055;-69
2021/10/18 08:32:47;;;;;;;25.80;21.45;;;13.50;99.90;;;;;;5088889;28;20501;-68
2021/10/18 08:35:14;;;;;;;23.60;19.55;;;13.50;99.90;;;;;;5071202;28;20119;-73
2021/10/18 08:41:01;;;;;;;22.65;17.80;;;13.60;99.90;;;;;;5088161;28;20479;-73
2021/10/18 08:43:27;;;;;;;23.58;18.05;;;13.60;99.90;;;;;;5087723;28;20063;-75
2021/10/18 08:45:54;;;;;;;20.52;17.40;;;13.70;99.90;;;;;;5089496;28;20048;-76
2021/10/18 08:48:41;;;;;;;20.00;16.95;;;13.70;99.90;;;;;;5080595;28;20044;-70
2021/10/18 08:51:09;;;;;;;20.48;17.50;;;13.70;99.90;;;;;;5071434;28;20117;-67
2021/10/18 08:53:36;;;;;;;23.83;16.63;;;13.70;99.90;;;;;;5074699;28;20498;-67
2021/10/18 08:56:04;;;;;;;21.23;17.52;;;13.70;99.90;;;;;;5113413;28;20071;-67
2021/10/18 08:58:31;;;;;;;21.77;18.33;;;13.70;99.90;;;;;;5072582;28;20470;-67
2021/10/18 09:00:58;;;;;;;23.38;18.48;;;13.70;99.90;;;;;;5087449;28;20051;-70
2021/10/18 09:03:34;;;;;;;24.30;17.83;;;13.80;99.90;;;;;;5089945;28;20075;-76
2021/10/18 09:06:11;;;;;;;18.55;16.02;;;13.80;99.90;;;;;;5076809;28;20055;-76
2021/10/18 09:08:47;;;;;;;19.13;16.02;;;13.90;99.90;;;;;;5097590;28;20128;-72
2021/10/18 09:11:27;;;;;;;47.85;40.90;;;14.00;99.90;;;;;;5091190;28;20095;-69
2021/10/18 09:13:53;;;;;;;;;;;14.00;99.90;;;;;;5078496;28;20491;-71
2021/10/18 09:16:37;;;;;;;23.67;18.65;;;14.10;99.90;;;;;;5091377;28;19920;-71
2021/10/18 09:19:10;;;;;;;20.65;16.45;;;14.20;99.90;;;;;;5097591;28;20150;-67
2021/10/18 09:22:10;;;;;;;23.15;16.92;;;14.30;99.90;;;;;;5094852;28;20137;-74
2021/10/18 09:24:41;;;;;;;20.08;15.05;;;14.40;99.90;;;;;;5025144;28;20095;-73
2021/10/18 09:27:16;;;;;;;16.85;13.57;;;14.50;99.90;;;;;;5091489;28;20040;-78
2021/10/18 09:29:51;;;;;;;15.40;13.07;;;14.50;99.90;;;;;;5075320;28;20095;-73
2021/10/18 09:32:20;;;;;;;20.58;14.57;;;14.60;99.90;;;;;;5091291;28;20089;-69
2021/10/18 09:34:48;;;;;;;15.45;13.85;;;14.60;99.90;;;;;;5082647;28;20066;-74
2021/10/18 09:37:15;;;;;;;17.80;13.23;;;14.60;99.90;;;;;;5095314;28;20119;-73
2021/10/18 09:39:43;;;;;;;15.02;12.95;;;14.60;99.90;;;;;;5089884;28;20522;-78
2021/10/18 09:42:15;;;;;;;16.35;13.40;;;14.60;99.90;;;;;;5089727;28;20444;-71
2021/10/18 09:48:03;;;;;;;15.48;13.02;;;14.60;99.60;;;;;;5090522;28;20476;-76
2021/10/18 10:53:28;;;;;;;14.20;10.75;;;15.80;96.30;;;;;;5072975;28;21762;-73
2021/10/18 10:55:57;;;;;;;14.77;10.45;;;15.90;96.30;;;;;;5090733;28;20044;-75
2021/10/18 10:58:31;;;;;;;11.77;10.55;;;15.90;96.50;;;;;;5086947;28;20056;-73
2021/10/18 11:00:59;;;;;;;22.45;10.57;;;16.00;96.10;;;;;;5077344;28;20056;-71
2021/10/18 11:03:41;;;;;;;18.10;16.20;;;16.00;96.20;;;;;;5090858;28;20123;-74
2021/10/18 11:06:10;;;;;;;20.60;14.02;;;16.00;96.10;;;;;;5087288;28;20044;-72
2021/10/18 11:08:44;;;;;;;16.35;11.63;;;16.10;95.70;;;;;;5086858;28;20852;-70
2021/10/18 11:11:13;;;;;;;13.63;10.35;;;16.10;95.20;;;;;;5089782;28;20044;-69
2021/10/18 11:13:54;;;;;;;14.70;11.20;;;16.10;95.30;;;;;;5090019;28;20140;-72
2021/10/18 11:16:24;;;;;;;12.43;10.30;;;16.20;95.30;;;;;;5088962;28;20101;-73
2021/10/18 11:18:56;;;;;;;11.30;9.27;;;16.10;95.00;;;;;;5089116;28;20079;-71
2021/10/18 11:21:32;;;;;;;12.02;8.98;;;16.20;94.80;;;;;;5090654;28;20078;-66
2021/10/18 11:24:06;;;;;;;13.50;10.15;;;16.20;95.00;;;;;;5076841;28;20126;-67
2021/10/18 11:26:36;;;;;;;10.10;9.10;;;16.20;95.10;;;;;;5087667;28;20044;-66
2021/10/18 11:29:07;;;;;;;;;;;16.30;94.60;;;;;;5089657;28;20052;-65
2021/10/18 11:31:39;;;;;;;12.02;8.57;;;16.40;94.70;;;;;;5088535;28;20440;-65
2021/10/18 11:34:18;;;;;;;10.32;8.07;;;16.40;95.10;;;;;;5072072;28;20044;-70
2021/10/18 11:36:48;;;;;;;13.98;8.63;;;16.50;94.00;;;;;;5087963;28;20040;-64
2021/10/18 11:39:21;;;;;;;;;;;16.60;94.30;;;;;;5074228;28;20491;-65
2021/10/18 11:42:13;;;;;;;10.65;7.95;;;16.60;94.60;;;;;;5088660;28;19970;-65
2021/10/18 11:44:45;;;;;;;12.93;7.80;;;16.80;94.60;;;;;;5086786;28;20117;-65
2021/10/18 11:47:31;;;;;;;9.32;8.00;;;16.90;94.20;;;;;;5089515;28;20074;-65
2021/10/18 11:50:04;;;;;;;11.07;7.82;;;17.00;94.00;;;;;;5089397;28;20044;-66
2021/10/18 11:52:31;;;;;;;9.30;7.88;;;17.10;93.90;;;;;;5086892;28;20083;-66
2021/10/18 11:54:59;;;;;;;11.75;7.88;;;17.10;93.50;;;;;;5089085;28;20044;-66
2021/10/18 11:57:27;;;;;;;11.07;8.07;;;17.20;93.00;;;;;;5089850;28;20097;-65
2021/10/18 11:59:54;;;;;;;9.23;7.45;;;17.20;93.00;;;;;;5087553;28;20048;-67
2021/10/18 12:02:22;;;;;;;14.55;12.90;;;17.20;92.90;;;;;;5055734;28;20130;-65
2021/10/18 12:04:56;;;;;;;15.95;13.32;;;17.20;93.40;;;;;;5060918;28;20104;-65
2021/10/18 12:07:40;;;;;;;10.88;8.25;;;17.30;93.10;;;;;;5087638;28;20059;-67
2021/10/18 12:10:20;;;;;;;12.13;7.60;;;17.30;92.80;;;;;;5084494;28;20115;-67
2021/10/18 12:13:20;;;;;;;8.93;7.32;;;17.30;92.70;;;;;;5089899;28;20071;-72
2021/10/18 12:16:06;;;;;;;11.05;7.45;;;17.30;92.60;;;;;;5089193;28;20079;-67
2021/10/18 12:18:42;;;;;;;9.73;7.15;;;17.30;92.40;;;;;;5098869;28;20198;-68
2021/10/18 12:21:12;;;;;;;9.80;7.05;;;17.40;92.80;;;;;;5090307;28;20051;-68
2021/10/18 12:23:53;;;;;;;11.98;7.47;;;17.40;92.70;;;;;;5054925;28;20052;-71
2021/10/18 12:26:31;;;;;;;11.68;7.80;;;17.50;92.40;;;;;;5088808;28;20066;-73
2021/10/18 12:29:18;;;;;;;9.25;6.90;;;17.50;92.60;;;;;;5066380;28;20144;-72
2021/10/18 12:31:45;;;;;;;9.52;6.57;;;17.50;91.90;;;;;;5070984;28;20068;-70
2021/10/18 12:34:24;;;;;;;12.07;6.10;;;17.50;92.30;;;;;;5089834;28;20122;-70
2021/10/18 12:37:07;;;;;;;12.93;6.28;;;17.50;92.20;;;;;;5085854;28;20097;-71
2021/10/18 12:39:49;;;;;;;11.43;7.45;;;17.60;92.10;;;;;;5091711;28;20449;-73
2021/10/18 12:42:16;;;;;;;9.75;7.07;;;17.60;92.30;;;;;;5092877;28;20105;-71
2021/10/18 12:44:45;;;;;;;10.63;6.18;;;17.60;92.20;;;;;;5092924;28;20040;-71
2021/10/18 12:47:26;;;;;;;8.70;6.22;;;17.70;92.50;;;;;;5092124;28;20163;-71
2021/10/18 12:50:13;;;;;;;8.75;6.25;;;17.70;91.90;;;;;;5064785;28;20108;-71
2021/10/18 12:52:42;;;;;;;12.52;6.40;;;17.70;91.90;;;;;;5078077;28;20119;-71
2021/10/18 12:55:28;;;;;;;8.98;7.22;;;17.60;92.10;;;;;;5076135;28;20617;-71
2021/10/18 12:57:57;;;;;;;10.93;7.28;;;17.50;92.10;;;;;;5062143;28;20060;-70
2021/10/18 13:00:31;;;;;;;14.20;6.50;;;17.40;92.30;;;;;;5092287;28;20105;-64
2021/10/18 13:03:21;;;;;;;10.60;7.20;;;17.40;92.30;;;;;;5091305;28;20285;-65
2021/10/18 13:05:52;;;;;;;7.20;6.00;;;17.30;92.40;;;;;;5090700;28;20050;-65
2021/10/18 13:08:23;;;;;;;8.75;6.35;;;17.30;92.60;;;;;;5091644;28;20047;-65
2021/10/18 13:10:51;;;;;;;8.35;6.47;;;17.30;92.70;;;;;;5083300;28;20176;-65
2021/10/18 13:13:20;;;;;;;10.23;6.45;;;17.30;93.00;;;;;;5084359;28;20075;-64
2021/10/18 13:15:49;;;;;;;23.98;14.23;;;17.30;93.00;;;;;;5091972;28;20100;-64
2021/10/18 13:18:16;;;;;;;13.02;8.07;;;17.30;92.80;;;;;;5075087;28;20053;-70
2021/10/18 13:20:45;;;;;;;6.95;6.25;;;17.30;92.90;;;;;;5073900;28;20036;-69
2021/10/18 13:23:14;;;;;;;12.75;7.18;;;17.40;92.60;;;;;;5089843;28;20048;-69
2021/10/18 13:25:43;;;;;;;12.90;6.20;;;17.40;92.90;;;;;;5073903;28;20101;-69
2021/10/18 13:28:10;;;;;;;8.13;6.05;;;17.40;93.00;;;;;;5089793;28;20084;-68
2021/10/18 13:30:38;;;;;;;12.00;6.75;;;17.40;93.10;;;;;;5088994;28;20048;-73
2021/10/18 13:33:05;;;;;;;7.70;6.30;;;17.40;92.80;;;;;;5087642;28;20132;-69
2021/10/18 13:35:32;;;;;;;13.45;7.40;;;17.40;93.00;;;;;;5068117;28;20124;-69
2021/10/18 13:37:59;;;;;;;10.10;7.05;;;17.40;93.00;;;;;;5087520;28;20096;-70
2021/10/18 13:40:27;;;;;;;10.45;6.88;;;17.30;93.00;;;;;;5106224;28;20063;-70
2021/10/18 13:42:54;;;;;;;9.88;7.45;;;17.20;93.30;;;;;;5090704;28;20352;-70
2021/10/18 13:45:22;;;;;;;10.60;6.57;;;17.10;93.60;;;;;;5092636;28;20044;-71
2021/10/18 13:47:50;;;;;;;8.60;6.72;;;17.00;94.10;;;;;;5089202;28;20056;-70
2021/10/18 13:50:17;;;;;;;15.73;8.90;;;17.10;94.10;;;;;;5089530;28;20499;-68
2021/10/18 13:52:46;;;;;;;9.73;7.70;;;17.10;94.20;;;;;;5069658;28;20388;-72